sensor_id;sensor_type;location;lat;lon;timestamp;temperature;humidity
10572;DHT22;5334;48.928;12.704;2023-07-22T00:01:58;16.40;99.90
10572;DHT22;5334;48.928;12.704;2023-07-22T00:04:27;16.40;99.90
10572;DHT22;5334;48.928;12.704;2023-07-22T00:06:59;16.30;99.90
10572;DHT22;5334;48.928;12.704;2023-07-22T00:09:24;16.40;99.90
10572;DHT22;5334;48.928;12.704;2023-07-22T00:14:43;16.30;99.90
10572;DHT22;5334;48.928;12.704;2023-07-22T00:17:09;16.20;99.90
10572;DHT22;5334;48.928;12.704;2023-07-22T00:19:41;16.20;99.90
10572;DHT22;5334;48.928;12.704;2023-07-22T00:22:07;16.20;99.90
10572;DHT22;5334;48.928;12.704;2023-07-22T00:24:35;16.20;99.90
10572;DHT22;5334;48.928;12.704;2023-07-22T00:27:02;16.10;99.90
10572;DHT22;5334;48.928;12.704;2023-07-22T00:29:28;16.10;99.90
10572;DHT22;5334;48.928;12.704;2023-07-22T00:31:53;16.10;99.90
10572;DHT22;5334;48.928;12.704;2023-07-22T00:34:25;16.10;99.90
10572;DHT22;5334;48.928;12.704;2023-07-22T00:36:57;16.10;99.90
10572;DHT22;5334;48.928;12.704;2023-07-22T00:39:26;16.00;99.90
10572;DHT22;5334;48.928;12.704;2023-07-22T00:44:29;16.00;99.90
10572;DHT22;5334;48.928;12.704;2023-07-22T00:47:10;16.00;99.90
10572;DHT22;5334;48.928;12.704;2023-07-22T00:49:39;16.00;99.90
10572;DHT22;5334;48.928;12.704;2023-07-22T00:52:17;15.90;99.90
10572;DHT22;5334;48.928;12.704;2023-07-22T00:54:46;15.90;99.90
10572;DHT22;5334;48.928;12.704;2023-07-22T00:57:11;15.90;99.90
10572;DHT22;5334;48.928;12.704;2023-07-22T00:59:38;15.90;99.90
10572;DHT22;5334;48.928;12.704;2023-07-22T01:02:04;15.80;99.90
10572;DHT22;5334;48.928;12.704;2023-07-22T01:04:34;15.70;99.90
10572;DHT22;5334;48.928;12.704;2023-07-22T01:07:01;15.70;99.90
10572;DHT22;5334;48.928;12.704;2023-07-22T01:09:39;15.70;99.90
10572;DHT22;5334;48.928;12.704;2023-07-22T01:12:08;15.60;99.90
10572;DHT22;5334;48.928;12.704;2023-07-22T01:14:42;15.60;99.90
10572;DHT22;5334;48.928;12.704;2023-07-22T01:22:10;15.60;99.90
10572;DHT22;5334;48.928;12.704;2023-07-22T01:24:38;15.60;99.90
10572;DHT22;5334;48.928;12.704;2023-07-22T01:27:09;15.60;99.90
10572;DHT22;5334;48.928;12.704;2023-07-22T01:29:41;15.50;99.90
10572;DHT22;5334;48.928;12.704;2023-07-22T01:32:10;15.50;99.90
10572;DHT22;5334;48.928;12.704;2023-07-22T01:34:36;15.40;99.90
10572;DHT22;5334;48.928;12.704;2023-07-22T01:37:01;15.40;99.90
10572;DHT22;5334;48.928;12.704;2023-07-22T01:41:59;15.30;99.90
10572;DHT22;5334;48.928;12.704;2023-07-22T01:44:28;15.20;99.90
10572;DHT22;5334;48.928;12.704;2023-07-22T01:49:40;15.20;99.90
10572;DHT22;5334;48.928;12.704;2023-07-22T01:52:06;15.10;99.90
10572;DHT22;5334;48.928;12.704;2023-07-22T01:54:38;15.00;99.90
10572;DHT22;5334;48.928;12.704;2023-07-22T01:57:03;15.00;99.90
10572;DHT22;5334;48.928;12.704;2023-07-22T01:59:29;15.00;99.90
10572;DHT22;5334;48.928;12.704;2023-07-22T02:01:55;15.00;99.90
10572;DHT22;5334;48.928;12.704;2023-07-22T02:04:32;15.00;99.90
10572;DHT22;5334;48.928;12.704;2023-07-22T02:07:01;15.00;99.90
10572;DHT22;5334;48.928;12.704;2023-07-22T02:09:33;15.00;99.90
10572;DHT22;5334;48.928;12.704;2023-07-22T02:11:59;15.00;99.90
10572;DHT22;5334;48.928;12.704;2023-07-22T02:14:25;15.00;99.90
10572;DHT22;5334;48.928;12.704;2023-07-22T02:16:50;15.00;99.90
10572;DHT22;5334;48.928;12.704;2023-07-22T02:19:25;15.00;99.90
10572;DHT22;5334;48.928;12.704;2023-07-22T02:21:54;15.00;99.90
10572;DHT22;5334;48.928;12.704;2023-07-22T02:24:19;14.90;99.90
10572;DHT22;5334;48.928;12.704;2023-07-22T02:26:45;14.80;99.90
10572;DHT22;5334;48.928;12.704;2023-07-22T02:29:11;14.70;99.90
10572;DHT22;5334;48.928;12.704;2023-07-22T02:31:40;14.80;99.90
10572;DHT22;5334;48.928;12.704;2023-07-22T02:34:06;14.80;99.90
10572;DHT22;5334;48.928;12.704;2023-07-22T02:36:31;14.80;99.90
10572;DHT22;5334;48.928;12.704;2023-07-22T02:39:00;14.70;99.90
10572;DHT22;5334;48.928;12.704;2023-07-22T02:41:32;14.70;99.90
10572;DHT22;5334;48.928;12.704;2023-07-22T02:44:00;14.70;99.90
10572;DHT22;5334;48.928;12.704;2023-07-22T02:46:26;14.70;99.90
10572;DHT22;5334;48.928;12.704;2023-07-22T02:48:52;14.70;99.90
10572;DHT22;5334;48.928;12.704;2023-07-22T02:51:20;14.70;99.90
10572;DHT22;5334;48.928;12.704;2023-07-22T02:53:46;14.60;99.90
10572;DHT22;5334;48.928;12.704;2023-07-22T02:56:12;14.50;99.90
10572;DHT22;5334;48.928;12.704;2023-07-22T02:58:41;14.40;99.90
10572;DHT22;5334;48.928;12.704;2023-07-22T03:01:07;14.40;99.90
10572;DHT22;5334;48.928;12.704;2023-07-22T03:03:34;14.30;99.90
10572;DHT22;5334;48.928;12.704;2023-07-22T03:08:33;14.10;99.90
10572;DHT22;5334;48.928;12.704;2023-07-22T03:11:08;14.10;99.90
10572;DHT22;5334;48.928;12.704;2023-07-22T03:13:39;14.10;99.90
10572;DHT22;5334;48.928;12.704;2023-07-22T03:16:14;14.00;99.90
10572;DHT22;5334;48.928;12.704;2023-07-22T03:18:43;14.00;99.90
10572;DHT22;5334;48.928;12.704;2023-07-22T03:21:10;13.90;99.90
10572;DHT22;5334;48.928;12.704;2023-07-22T03:23:38;13.90;99.90
10572;DHT22;5334;48.928;12.704;2023-07-22T03:26:17;13.80;99.90
10572;DHT22;5334;48.928;12.704;2023-07-22T03:28:45;13.80;99.90
10572;DHT22;5334;48.928;12.704;2023-07-22T03:31:11;13.70;99.90
10572;DHT22;5334;48.928;12.704;2023-07-22T03:33:40;13.60;99.90
10572;DHT22;5334;48.928;12.704;2023-07-22T03:36:09;13.60;99.90
10572;DHT22;5334;48.928;12.704;2023-07-22T03:38:38;13.60;99.90
10572;DHT22;5334;48.928;12.704;2023-07-22T03:41:07;13.60;99.90
10572;DHT22;5334;48.928;12.704;2023-07-22T03:43:32;13.60;99.90
10572;DHT22;5334;48.928;12.704;2023-07-22T03:45:58;13.70;99.90
10572;DHT22;5334;48.928;12.704;2023-07-22T03:48:24;13.70;99.90
10572;DHT22;5334;48.928;12.704;2023-07-22T03:50:49;13.70;99.90
10572;DHT22;5334;48.928;12.704;2023-07-22T03:53:16;13.80;99.90
10572;DHT22;5334;48.928;12.704;2023-07-22T03:55:41;13.80;99.90
10572;DHT22;5334;48.928;12.704;2023-07-22T03:58:07;13.90;99.90
10572;DHT22;5334;48.928;12.704;2023-07-22T04:00:37;14.00;99.90
10572;DHT22;5334;48.928;12.704;2023-07-22T04:03:03;14.00;99.90
10572;DHT22;5334;48.928;12.704;2023-07-22T04:05:31;14.10;99.90
10572;DHT22;5334;48.928;12.704;2023-07-22T04:08:00;14.10;99.90
10572;DHT22;5334;48.928;12.704;2023-07-22T04:10:26;14.10;99.90
10572;DHT22;5334;48.928;12.704;2023-07-22T04:12:51;14.10;99.90
10572;DHT22;5334;48.928;12.704;2023-07-22T04:15:17;14.10;99.90
10572;DHT22;5334;48.928;12.704;2023-07-22T04:17:43;14.10;99.90
10572;DHT22;5334;48.928;12.704;2023-07-22T04:20:09;14.20;99.90
10572;DHT22;5334;48.928;12.704;2023-07-22T04:22:41;14.30;99.90
10572;DHT22;5334;48.928;12.704;2023-07-22T04:25:07;14.30;99.90
10572;DHT22;5334;48.928;12.704;2023-07-22T04:27:33;14.20;99.90
10572;DHT22;5334;48.928;12.704;2023-07-22T04:30:00;14.30;99.90
10572;DHT22;5334;48.928;12.704;2023-07-22T04:32:25;14.40;99.90
10572;DHT22;5334;48.928;12.704;2023-07-22T04:34:54;14.40;99.90
10572;DHT22;5334;48.928;12.704;2023-07-22T04:37:23;14.50;99.90
10572;DHT22;5334;48.928;12.704;2023-07-22T04:39:49;14.60;99.90
10572;DHT22;5334;48.928;12.704;2023-07-22T04:42:15;14.60;99.90
10572;DHT22;5334;48.928;12.704;2023-07-22T04:44:46;14.70;99.90
10572;DHT22;5334;48.928;12.704;2023-07-22T04:47:18;14.80;99.90
10572;DHT22;5334;48.928;12.704;2023-07-22T04:49:44;15.00;99.90
10572;DHT22;5334;48.928;12.704;2023-07-22T04:52:09;15.20;99.90
10572;DHT22;5334;48.928;12.704;2023-07-22T04:54:38;15.30;99.90
10572;DHT22;5334;48.928;12.704;2023-07-22T04:57:07;15.50;99.90
10572;DHT22;5334;48.928;12.704;2023-07-22T04:59:35;15.60;99.90
10572;DHT22;5334;48.928;12.704;2023-07-22T05:02:04;15.70;99.90
10572;DHT22;5334;48.928;12.704;2023-07-22T05:04:29;15.80;99.90
10572;DHT22;5334;48.928;12.704;2023-07-22T05:06:58;16.00;99.90
10572;DHT22;5334;48.928;12.704;2023-07-22T05:09:24;16.10;99.90
10572;DHT22;5334;48.928;12.704;2023-07-22T05:11:50;16.30;99.90
10572;DHT22;5334;48.928;12.704;2023-07-22T05:14:15;16.50;99.90
10572;DHT22;5334;48.928;12.704;2023-07-22T05:16:44;16.60;99.90
10572;DHT22;5334;48.928;12.704;2023-07-22T05:19:09;16.70;99.90
10572;DHT22;5334;48.928;12.704;2023-07-22T05:21:35;16.70;99.90
10572;DHT22;5334;48.928;12.704;2023-07-22T05:24:00;16.80;99.90
10572;DHT22;5334;48.928;12.704;2023-07-22T05:26:38;16.90;99.90
10572;DHT22;5334;48.928;12.704;2023-07-22T05:29:07;17.00;99.90
10572;DHT22;5334;48.928;12.704;2023-07-22T05:31:33;17.10;99.90
10572;DHT22;5334;48.928;12.704;2023-07-22T05:33:58;17.10;99.90
10572;DHT22;5334;48.928;12.704;2023-07-22T05:36:27;17.10;99.90
10572;DHT22;5334;48.928;12.704;2023-07-22T05:38:58;17.10;99.90
10572;DHT22;5334;48.928;12.704;2023-07-22T05:41:27;17.10;99.90
10572;DHT22;5334;48.928;12.704;2023-07-22T05:43:52;17.10;99.90
10572;DHT22;5334;48.928;12.704;2023-07-22T05:46:18;17.10;99.90
10572;DHT22;5334;48.928;12.704;2023-07-22T05:48:43;17.30;99.90
10572;DHT22;5334;48.928;12.704;2023-07-22T05:51:12;17.40;99.90
10572;DHT22;5334;48.928;12.704;2023-07-22T05:53:41;17.60;99.90
10572;DHT22;5334;48.928;12.704;2023-07-22T05:56:10;17.80;99.90
10572;DHT22;5334;48.928;12.704;2023-07-22T05:58:36;17.70;99.90
10572;DHT22;5334;48.928;12.704;2023-07-22T06:01:07;17.80;99.90
10572;DHT22;5334;48.928;12.704;2023-07-22T06:03:36;17.90;99.90
10572;DHT22;5334;48.928;12.704;2023-07-22T06:06:08;18.10;99.90
10572;DHT22;5334;48.928;12.704;2023-07-22T06:08:40;18.40;99.90
10572;DHT22;5334;48.928;12.704;2023-07-22T06:11:09;18.60;99.90
10572;DHT22;5334;48.928;12.704;2023-07-22T06:13:40;18.50;99.90
10572;DHT22;5334;48.928;12.704;2023-07-22T06:16:05;18.50;99.90
10572;DHT22;5334;48.928;12.704;2023-07-22T06:18:31;18.30;99.90
10572;DHT22;5334;48.928;12.704;2023-07-22T06:21:03;18.40;99.90
10572;DHT22;5334;48.928;12.704;2023-07-22T06:23:34;18.50;99.90
10572;DHT22;5334;48.928;12.704;2023-07-22T06:26:00;18.70;99.90
10572;DHT22;5334;48.928;12.704;2023-07-22T06:28:31;18.80;99.90
10572;DHT22;5334;48.928;12.704;2023-07-22T06:30:57;18.80;99.90
10572;DHT22;5334;48.928;12.704;2023-07-22T06:33:23;19.10;99.90
10572;DHT22;5334;48.928;12.704;2023-07-22T06:35:48;19.40;99.90
10572;DHT22;5334;48.928;12.704;2023-07-22T06:38:14;19.60;99.90
10572;DHT22;5334;48.928;12.704;2023-07-22T06:40:42;19.80;99.90
10572;DHT22;5334;48.928;12.704;2023-07-22T06:43:11;19.80;99.90
10572;DHT22;5334;48.928;12.704;2023-07-22T06:45:39;20.00;99.90
10572;DHT22;5334;48.928;12.704;2023-07-22T06:48:05;20.10;99.90
10572;DHT22;5334;48.928;12.704;2023-07-22T06:50:31;20.30;99.90
10572;DHT22;5334;48.928;12.704;2023-07-22T06:52:57;20.40;99.90
10572;DHT22;5334;48.928;12.704;2023-07-22T06:55:30;20.50;99.90
10572;DHT22;5334;48.928;12.704;2023-07-22T06:57:59;20.70;99.90
10572;DHT22;5334;48.928;12.704;2023-07-22T07:00:25;20.70;99.90
10572;DHT22;5334;48.928;12.704;2023-07-22T07:02:51;20.90;99.90
10572;DHT22;5334;48.928;12.704;2023-07-22T07:05:16;21.00;99.90
10572;DHT22;5334;48.928;12.704;2023-07-22T07:07:46;21.00;99.90
10572;DHT22;5334;48.928;12.704;2023-07-22T07:12:42;21.80;99.90
10572;DHT22;5334;48.928;12.704;2023-07-22T07:15:08;22.00;99.90
10572;DHT22;5334;48.928;12.704;2023-07-22T07:17:34;22.10;99.90
10572;DHT22;5334;48.928;12.704;2023-07-22T07:20:03;21.70;99.90
10572;DHT22;5334;48.928;12.704;2023-07-22T07:22:31;21.50;99.90
10572;DHT22;5334;48.928;12.704;2023-07-22T07:25:00;21.70;99.90
10572;DHT22;5334;48.928;12.704;2023-07-22T07:27:31;22.10;99.90
10572;DHT22;5334;48.928;12.704;2023-07-22T07:30:00;22.20;99.90
10572;DHT22;5334;48.928;12.704;2023-07-22T07:32:27;22.30;99.90
10572;DHT22;5334;48.928;12.704;2023-07-22T07:34:56;22.30;99.90
10572;DHT22;5334;48.928;12.704;2023-07-22T07:37:25;22.20;99.90
10572;DHT22;5334;48.928;12.704;2023-07-22T07:39:50;22.10;99.90
10572;DHT22;5334;48.928;12.704;2023-07-22T07:42:16;21.90;99.90
10572;DHT22;5334;48.928;12.704;2023-07-22T07:44:41;21.70;99.90
10572;DHT22;5334;48.928;12.704;2023-07-22T07:47:07;21.70;99.90
10572;DHT22;5334;48.928;12.704;2023-07-22T07:49:33;21.90;99.90
10572;DHT22;5334;48.928;12.704;2023-07-22T07:56:51;23.00;99.90
10572;DHT22;5334;48.928;12.704;2023-07-22T07:59:17;23.20;99.90
10572;DHT22;5334;48.928;12.704;2023-07-22T08:01:42;23.00;99.90
10572;DHT22;5334;48.928;12.704;2023-07-22T08:04:08;22.70;99.90
10572;DHT22;5334;48.928;12.704;2023-07-22T08:06:34;22.50;99.90
10572;DHT22;5334;48.928;12.704;2023-07-22T08:09:00;22.90;99.90
10572;DHT22;5334;48.928;12.704;2023-07-22T08:11:26;23.30;99.90
10572;DHT22;5334;48.928;12.704;2023-07-22T08:13:51;23.30;99.40
10572;DHT22;5334;48.928;12.704;2023-07-22T08:16:17;23.40;99.40
10572;DHT22;5334;48.928;12.704;2023-07-22T08:18:43;23.40;98.70
10572;DHT22;5334;48.928;12.704;2023-07-22T08:21:09;23.10;98.50
10572;DHT22;5334;48.928;12.704;2023-07-22T08:23:36;22.90;99.00
10572;DHT22;5334;48.928;12.704;2023-07-22T08:26:02;22.80;98.80
10572;DHT22;5334;48.928;12.704;2023-07-22T08:28:30;22.80;98.40
10572;DHT22;5334;48.928;12.704;2023-07-22T08:30:56;23.20;99.30
10572;DHT22;5334;48.928;12.704;2023-07-22T08:33:23;23.70;98.60
10572;DHT22;5334;48.928;12.704;2023-07-22T08:35:49;24.10;98.50
10572;DHT22;5334;48.928;12.704;2023-07-22T08:38:15;23.80;96.70
10572;DHT22;5334;48.928;12.704;2023-07-22T08:40:41;23.40;97.60
10572;DHT22;5334;48.928;12.704;2023-07-22T08:43:09;22.90;97.70
10572;DHT22;5334;48.928;12.704;2023-07-22T08:45:36;22.70;98.30
10572;DHT22;5334;48.928;12.704;2023-07-22T08:48:04;22.70;98.40
10572;DHT22;5334;48.928;12.704;2023-07-22T08:51:12;23.00;98.30
10572;DHT22;5334;48.928;12.704;2023-07-22T08:53:39;23.10;98.40
10572;DHT22;5334;48.928;12.704;2023-07-22T08:56:05;23.50;97.60
10572;DHT22;5334;48.928;12.704;2023-07-22T08:58:31;24.00;97.60
10572;DHT22;5334;48.928;12.704;2023-07-22T09:00:58;24.10;96.30
10572;DHT22;5334;48.928;12.704;2023-07-22T09:03:24;24.00;95.90
10572;DHT22;5334;48.928;12.704;2023-07-22T09:05:50;23.80;95.80
10572;DHT22;5334;48.928;12.704;2023-07-22T09:08:16;23.40;96.40
10572;DHT22;5334;48.928;12.704;2023-07-22T09:10:43;23.40;97.20
10572;DHT22;5334;48.928;12.704;2023-07-22T09:13:13;23.70;96.80
10572;DHT22;5334;48.928;12.704;2023-07-22T09:15:39;23.90;96.20
10572;DHT22;5334;48.928;12.704;2023-07-22T09:18:05;24.10;96.00
10572;DHT22;5334;48.928;12.704;2023-07-22T09:20:32;24.10;95.60
10572;DHT22;5334;48.928;12.704;2023-07-22T09:22:59;24.90;95.10
10572;DHT22;5334;48.928;12.704;2023-07-22T09:25:31;25.00;95.00
10572;DHT22;5334;48.928;12.704;2023-07-22T09:28:00;24.90;94.20
10572;DHT22;5334;48.928;12.704;2023-07-22T09:30:34;24.80;93.50
10572;DHT22;5334;48.928;12.704;2023-07-22T09:33:05;24.70;93.50
10572;DHT22;5334;48.928;12.704;2023-07-22T09:35:46;24.90;93.30
10572;DHT22;5334;48.928;12.704;2023-07-22T09:38:12;25.00;93.30
10572;DHT22;5334;48.928;12.704;2023-07-22T09:40:40;24.70;92.10
10572;DHT22;5334;48.928;12.704;2023-07-22T09:43:10;24.60;93.40
10572;DHT22;5334;48.928;12.704;2023-07-22T09:45:46;25.30;93.20
10572;DHT22;5334;48.928;12.704;2023-07-22T09:48:16;25.40;92.30
10572;DHT22;5334;48.928;12.704;2023-07-22T09:50:41;26.00;92.30
10572;DHT22;5334;48.928;12.704;2023-07-22T09:55:33;26.40;91.00
10572;DHT22;5334;48.928;12.704;2023-07-22T10:00:31;26.10;89.00
10572;DHT22;5334;48.928;12.704;2023-07-22T10:10:38;24.10;90.90
10572;DHT22;5334;48.928;12.704;2023-07-22T10:13:04;23.60;92.20
10572;DHT22;5334;48.928;12.704;2023-07-22T10:15:32;23.80;92.80
10572;DHT22;5334;48.928;12.704;2023-07-22T10:20:30;24.70;91.00
10572;DHT22;5334;48.928;12.704;2023-07-22T10:25:26;25.40;88.00
10572;DHT22;5334;48.928;12.704;2023-07-22T10:30:21;25.50;86.50
10572;DHT22;5334;48.928;12.704;2023-07-22T10:37:46;26.50;83.80
10572;DHT22;5334;48.928;12.704;2023-07-22T10:40:29;26.70;82.10
10572;DHT22;5334;48.928;12.704;2023-07-22T10:43:09;26.20;82.00
10572;DHT22;5334;48.928;12.704;2023-07-22T10:48:12;26.30;81.20
10572;DHT22;5334;48.928;12.704;2023-07-22T10:53:32;26.30;81.30
10572;DHT22;5334;48.928;12.704;2023-07-22T11:01:36;27.50;79.00
10572;DHT22;5334;48.928;12.704;2023-07-22T11:04:12;27.60;73.60
10572;DHT22;5334;48.928;12.704;2023-07-22T11:12:05;27.20;75.40
10572;DHT22;5334;48.928;12.704;2023-07-22T11:14:38;27.40;74.20
10572;DHT22;5334;48.928;12.704;2023-07-22T11:17:05;27.70;72.60
10572;DHT22;5334;48.928;12.704;2023-07-22T11:19:34;27.70;72.20
10572;DHT22;5334;48.928;12.704;2023-07-22T11:22:00;27.50;69.50
10572;DHT22;5334;48.928;12.704;2023-07-22T11:24:26;27.20;70.00
10572;DHT22;5334;48.928;12.704;2023-07-22T11:26:55;26.90;69.20
10572;DHT22;5334;48.928;12.704;2023-07-22T11:29:40;27.10;69.80
10572;DHT22;5334;48.928;12.704;2023-07-22T11:32:19;27.80;69.40
10572;DHT22;5334;48.928;12.704;2023-07-22T11:34:47;28.00;67.00
10572;DHT22;5334;48.928;12.704;2023-07-22T11:37:13;27.80;65.50
10572;DHT22;5334;48.928;12.704;2023-07-22T11:39:40;27.70;64.80
10572;DHT22;5334;48.928;12.704;2023-07-22T11:42:08;27.50;64.20
10572;DHT22;5334;48.928;12.704;2023-07-22T11:44:33;27.50;65.20
10572;DHT22;5334;48.928;12.704;2023-07-22T11:47:04;27.70;63.50
10572;DHT22;5334;48.928;12.704;2023-07-22T11:49:37;27.40;60.40
10572;DHT22;5334;48.928;12.704;2023-07-22T11:52:11;27.40;62.20
10572;DHT22;5334;48.928;12.704;2023-07-22T11:54:41;27.30;63.00
10572;DHT22;5334;48.928;12.704;2023-07-22T11:57:21;27.30;63.70
10572;DHT22;5334;48.928;12.704;2023-07-22T11:59:52;28.50;64.10
10572;DHT22;5334;48.928;12.704;2023-07-22T12:05:00;29.00;59.20
10572;DHT22;5334;48.928;12.704;2023-07-22T12:07:27;29.20;59.10
10572;DHT22;5334;48.928;12.704;2023-07-22T12:10:06;29.20;57.80
10572;DHT22;5334;48.928;12.704;2023-07-22T12:12:46;29.00;56.70
10572;DHT22;5334;48.928;12.704;2023-07-22T12:15:19;28.90;56.50
10572;DHT22;5334;48.928;12.704;2023-07-22T12:17:52;28.50;57.50
10572;DHT22;5334;48.928;12.704;2023-07-22T12:20:22;28.60;58.10
10572;DHT22;5334;48.928;12.704;2023-07-22T12:25:42;28.90;78.40
10572;DHT22;5334;48.928;12.704;2023-07-22T12:35:42;29.20;75.20
10572;DHT22;5334;48.928;12.704;2023-07-22T12:38:13;29.10;76.70
10572;DHT22;5334;48.928;12.704;2023-07-22T12:40:39;28.60;60.80
10572;DHT22;5334;48.928;12.704;2023-07-22T12:43:05;28.60;56.10
10572;DHT22;5334;48.928;12.704;2023-07-22T12:45:34;29.00;68.80
10572;DHT22;5334;48.928;12.704;2023-07-22T12:48:09;29.00;66.90
10572;DHT22;5334;48.928;12.704;2023-07-22T12:50:35;29.30;66.60
10572;DHT22;5334;48.928;12.704;2023-07-22T12:53:19;29.80;68.00
10572;DHT22;5334;48.928;12.704;2023-07-22T12:55:47;29.90;64.60
10572;DHT22;5334;48.928;12.704;2023-07-22T12:58:14;29.80;66.40
10572;DHT22;5334;48.928;12.704;2023-07-22T13:00:42;29.20;67.40
10572;DHT22;5334;48.928;12.704;2023-07-22T13:03:14;28.40;69.90
10572;DHT22;5334;48.928;12.704;2023-07-22T13:05:39;28.10;77.60
10572;DHT22;5334;48.928;12.704;2023-07-22T13:08:08;28.40;76.50
10572;DHT22;5334;48.928;12.704;2023-07-22T13:10:34;28.80;71.80
10572;DHT22;5334;48.928;12.704;2023-07-22T13:13:03;28.70;73.60
10572;DHT22;5334;48.928;12.704;2023-07-22T13:15:28;28.40;75.60
10572;DHT22;5334;48.928;12.704;2023-07-22T13:17:57;28.70;74.90
10572;DHT22;5334;48.928;12.704;2023-07-22T13:20:22;28.80;70.50
10572;DHT22;5334;48.928;12.704;2023-07-22T13:22:48;28.90;71.30
10572;DHT22;5334;48.928;12.704;2023-07-22T13:25:17;28.40;73.60
10572;DHT22;5334;48.928;12.704;2023-07-22T13:27:42;28.20;84.20
10572;DHT22;5334;48.928;12.704;2023-07-22T13:30:08;27.90;75.50
10572;DHT22;5334;48.928;12.704;2023-07-22T13:32:37;27.60;77.20
10572;DHT22;5334;48.928;12.704;2023-07-22T13:35:06;27.90;76.50
10572;DHT22;5334;48.928;12.704;2023-07-22T13:37:33;27.90;79.80
10572;DHT22;5334;48.928;12.704;2023-07-22T13:39:59;29.10;78.50
10572;DHT22;5334;48.928;12.704;2023-07-22T13:42:28;28.40;75.90
10572;DHT22;5334;48.928;12.704;2023-07-22T13:44:54;28.90;79.80
10572;DHT22;5334;48.928;12.704;2023-07-22T13:47:20;28.90;74.50
10572;DHT22;5334;48.928;12.704;2023-07-22T13:49:49;28.90;76.70
10572;DHT22;5334;48.928;12.704;2023-07-22T13:52:17;28.30;75.30
10572;DHT22;5334;48.928;12.704;2023-07-22T13:54:43;27.70;75.20
10572;DHT22;5334;48.928;12.704;2023-07-22T13:57:12;27.80;74.20
10572;DHT22;5334;48.928;12.704;2023-07-22T13:59:37;28.20;79.30
10572;DHT22;5334;48.928;12.704;2023-07-22T14:02:03;28.00;78.30
10572;DHT22;5334;48.928;12.704;2023-07-22T14:04:35;28.10;82.00
10572;DHT22;5334;48.928;12.704;2023-07-22T14:07:01;28.00;81.00
10572;DHT22;5334;48.928;12.704;2023-07-22T14:09:26;27.80;76.90
10572;DHT22;5334;48.928;12.704;2023-07-22T14:11:55;27.90;77.30
10572;DHT22;5334;48.928;12.704;2023-07-22T14:14:26;28.00;80.70
10572;DHT22;5334;48.928;12.704;2023-07-22T14:16:55;27.90;78.80
10572;DHT22;5334;48.928;12.704;2023-07-22T14:19:21;27.80;80.00
10572;DHT22;5334;48.928;12.704;2023-07-22T14:21:46;28.20;79.60
10572;DHT22;5334;48.928;12.704;2023-07-22T14:24:12;28.30;80.10
10572;DHT22;5334;48.928;12.704;2023-07-22T14:26:38;28.20;75.80
10572;DHT22;5334;48.928;12.704;2023-07-22T14:29:06;28.00;70.00
10572;DHT22;5334;48.928;12.704;2023-07-22T14:31:42;27.80;75.20
10572;DHT22;5334;48.928;12.704;2023-07-22T14:34:08;28.00;72.70
10572;DHT22;5334;48.928;12.704;2023-07-22T14:36:37;28.00;73.80
10572;DHT22;5334;48.928;12.704;2023-07-22T14:39:06;27.60;74.60
10572;DHT22;5334;48.928;12.704;2023-07-22T14:41:43;28.30;73.90
10572;DHT22;5334;48.928;12.704;2023-07-22T14:44:09;28.50;75.60
10572;DHT22;5334;48.928;12.704;2023-07-22T14:46:35;28.70;76.80
10572;DHT22;5334;48.928;12.704;2023-07-22T14:49:04;28.70;73.50
10572;DHT22;5334;48.928;12.704;2023-07-22T14:51:44;28.70;70.80
10572;DHT22;5334;48.928;12.704;2023-07-22T14:54:12;28.50;72.40
10572;DHT22;5334;48.928;12.704;2023-07-22T14:56:41;28.30;80.40
10572;DHT22;5334;48.928;12.704;2023-07-22T14:59:07;28.10;78.20
10572;DHT22;5334;48.928;12.704;2023-07-22T15:01:39;27.80;77.80
10572;DHT22;5334;48.928;12.704;2023-07-22T15:04:08;27.70;78.80
10572;DHT22;5334;48.928;12.704;2023-07-22T15:06:37;27.80;81.50
10572;DHT22;5334;48.928;12.704;2023-07-22T15:09:03;28.50;79.50
10572;DHT22;5334;48.928;12.704;2023-07-22T15:11:35;28.40;79.00
10572;DHT22;5334;48.928;12.704;2023-07-22T15:14:08;28.70;78.40
10572;DHT22;5334;48.928;12.704;2023-07-22T15:16:42;28.20;80.40
10572;DHT22;5334;48.928;12.704;2023-07-22T15:19:08;27.90;81.20
10572;DHT22;5334;48.928;12.704;2023-07-22T15:21:34;27.90;79.80
10572;DHT22;5334;48.928;12.704;2023-07-22T15:24:12;28.30;81.10
10572;DHT22;5334;48.928;12.704;2023-07-22T15:26:37;29.00;80.30
10572;DHT22;5334;48.928;12.704;2023-07-22T15:29:06;28.50;78.20
10572;DHT22;5334;48.928;12.704;2023-07-22T15:31:32;27.80;78.40
10572;DHT22;5334;48.928;12.704;2023-07-22T15:34:07;27.90;80.40
10572;DHT22;5334;48.928;12.704;2023-07-22T15:36:45;28.00;80.00
10572;DHT22;5334;48.928;12.704;2023-07-22T15:39:13;27.00;79.00
10572;DHT22;5334;48.928;12.704;2023-07-22T15:41:45;27.10;77.50
10572;DHT22;5334;48.928;12.704;2023-07-22T15:44:11;26.70;76.70
10572;DHT22;5334;48.928;12.704;2023-07-22T15:46:36;26.80;78.00
10572;DHT22;5334;48.928;12.704;2023-07-22T15:49:11;26.70;77.50
10572;DHT22;5334;48.928;12.704;2023-07-22T15:51:40;26.70;79.50
10572;DHT22;5334;48.928;12.704;2023-07-22T15:54:12;26.80;81.00
10572;DHT22;5334;48.928;12.704;2023-07-22T15:56:40;26.60;82.30
10572;DHT22;5334;48.928;12.704;2023-07-22T15:59:06;26.50;83.40
10572;DHT22;5334;48.928;12.704;2023-07-22T16:01:32;26.30;86.00
10572;DHT22;5334;48.928;12.704;2023-07-22T16:03:57;26.50;86.10
10572;DHT22;5334;48.928;12.704;2023-07-22T16:06:23;27.30;83.00
10572;DHT22;5334;48.928;12.704;2023-07-22T16:08:52;26.50;83.10
10572;DHT22;5334;48.928;12.704;2023-07-22T16:11:17;26.40;83.10
10572;DHT22;5334;48.928;12.704;2023-07-22T16:13:43;26.60;83.50
10572;DHT22;5334;48.928;12.704;2023-07-22T16:16:15;26.80;80.50
10572;DHT22;5334;48.928;12.704;2023-07-22T16:18:40;26.70;85.10
10572;DHT22;5334;48.928;12.704;2023-07-22T16:21:06;27.00;83.40
10572;DHT22;5334;48.928;12.704;2023-07-22T16:23:31;27.20;85.70
10572;DHT22;5334;48.928;12.704;2023-07-22T16:25:57;27.10;83.20
10572;DHT22;5334;48.928;12.704;2023-07-22T16:28:26;27.70;80.50
10572;DHT22;5334;48.928;12.704;2023-07-22T16:30:58;26.90;84.80
10572;DHT22;5334;48.928;12.704;2023-07-22T16:33:26;26.80;83.70
10572;DHT22;5334;48.928;12.704;2023-07-22T16:35:52;26.80;84.00
10572;DHT22;5334;48.928;12.704;2023-07-22T16:38:20;26.90;85.40
10572;DHT22;5334;48.928;12.704;2023-07-22T16:40:46;26.70;84.20
10572;DHT22;5334;48.928;12.704;2023-07-22T16:43:15;26.50;83.50
10572;DHT22;5334;48.928;12.704;2023-07-22T16:45:40;26.50;84.60
10572;DHT22;5334;48.928;12.704;2023-07-22T16:48:06;26.50;84.10
10572;DHT22;5334;48.928;12.704;2023-07-22T16:50:34;26.50;82.70
10572;DHT22;5334;48.928;12.704;2023-07-22T16:53:04;26.40;82.90
10572;DHT22;5334;48.928;12.704;2023-07-22T16:55:36;26.40;82.80
10572;DHT22;5334;48.928;12.704;2023-07-22T16:58:04;26.50;84.40